Time;durP1;ratioP1;P1;durP2;ratioP2;P2;SDS_P1;SDS_P2;PMS_P1;PMS_P2;Temp;Humidity;BMP_temperature;BMP_pressure;BME280_temperature;BME280_humidity;BME280_pressure;Samples;Min_cycle;Max_cycle;Signal;HPM_P1;HPM_P2
2022/01/18 00:01:50;;;;;;;20.43;4.33;;;0.90;99.90;;;;;;5054285;28;20459;-62
2022/01/18 00:04:16;;;;;;;17.53;5.80;;;0.90;99.90;;;;;;5052413;28;20195;-62
2022/01/18 00:06:46;;;;;;;20.30;4.87;;;0.80;99.90;;;;;;5053466;28;20210;-65
2022/01/18 00:09:12;;;;;;;23.03;5.43;;;0.80;99.90;;;;;;5051327;28;20361;-65
2022/01/18 00:11:44;;;;;;;13.10;3.83;;;0.70;99.90;;;;;;5057411;28;20283;-65
2022/01/18 00:14:23;;;;;;;23.07;4.93;;;0.70;99.90;;;;;;5054331;28;20207;-65
2022/01/18 00:17:03;;;;;;;15.00;4.47;;;0.70;99.90;;;;;;5053186;28;20208;-63
2022/01/18 00:19:29;;;;;;;29.43;5.13;;;0.60;99.90;;;;;;5056057;28;20209;-62
2022/01/18 00:24:26;;;;;;;14.70;3.83;;;0.60;99.90;;;;;;5048944;28;20205;-63
2022/01/18 00:26:51;;;;;;;25.17;5.63;;;0.60;99.90;;;;;;5057721;28;20208;-63
2022/01/18 00:29:20;;;;;;;15.93;4.77;;;0.60;99.90;;;;;;5057023;28;20695;-63
2022/01/18 00:34:26;;;;;;;19.27;4.97;;;0.60;99.90;;;;;;5054472;28;20261;-63
2022/01/18 00:39:17;;;;;;;27.53;4.50;;;0.60;99.90;;;;;;5055222;28;20722;-62
2022/01/18 00:41:42;;;;;;;23.23;4.63;;;0.60;99.90;;;;;;5058890;28;20549;-65
2022/01/18 00:44:10;;;;;;;22.70;5.67;;;0.60;99.90;;;;;;5053879;28;20272;-63
2022/01/18 00:46:36;;;;;;;28.53;5.63;;;0.60;99.90;;;;;;5057777;28;20264;-64
2022/01/18 00:49:03;;;;;;;22.17;5.47;;;0.60;99.90;;;;;;5055385;28;20232;-65
2022/01/18 00:51:33;;;;;;;19.07;4.63;;;0.60;99.90;;;;;;5054088;28;20219;-63
2022/01/18 00:54:00;;;;;;;16.03;4.97;;;0.60;99.90;;;;;;5054386;28;20206;-64
2022/01/18 00:56:28;;;;;;;21.40;4.40;;;0.60;99.90;;;;;;5056872;28;20201;-63
2022/01/18 00:58:54;;;;;;;16.73;4.77;;;0.60;99.90;;;;;;5049920;28;20208;-63
2022/01/18 01:01:24;;;;;;;26.97;6.33;;;0.60;99.90;;;;;;5056248;28;20185;-63
2022/01/18 01:03:51;;;;;;;22.73;4.70;;;0.50;99.90;;;;;;5054082;28;20196;-64
2022/01/18 01:06:17;;;;;;;17.63;5.67;;;0.50;99.90;;;;;;5052169;28;20214;-63
2022/01/18 01:08:43;;;;;;;22.87;5.30;;;0.50;99.90;;;;;;5064818;28;20195;-63
2022/01/18 01:11:11;;;;;;;21.83;4.70;;;0.60;99.90;;;;;;5056739;28;20188;-66
2022/01/18 01:13:42;;;;;;;21.00;4.70;;;0.60;99.90;;;;;;5051472;28;20290;-66
2022/01/18 01:18:50;;;;;;;27.73;6.53;;;0.70;99.90;;;;;;5053449;28;20200;-65
2022/01/18 01:45:31;;;;;;;33.17;6.57;;;0.70;99.90;;;;;;5049717;28;20185;-63
2022/01/18 01:48:00;;;;;;;21.97;4.80;;;0.70;99.90;;;;;;5064553;28;20268;-64
2022/01/18 01:50:34;;;;;;;25.57;4.97;;;0.70;99.90;;;;;;5054209;28;20196;-64
2022/01/18 01:53:00;;;;;;;26.27;5.27;;;0.70;99.90;;;;;;5057255;28;20196;-64
2022/01/18 01:55:25;;;;;;;33.27;6.20;;;0.70;99.90;;;;;;5056573;28;20193;-65
2022/01/18 01:57:51;;;;;;;24.27;5.93;;;0.70;99.90;;;;;;5064117;28;20216;-64
2022/01/18 02:00:20;;;;;;;17.07;5.23;;;0.60;99.90;;;;;;5046733;28;20193;-64
2022/01/18 02:02:46;;;;;;;19.07;4.70;;;0.60;99.90;;;;;;5064592;28;20197;-64
2022/01/18 02:05:12;;;;;;;22.90;5.70;;;0.60;99.90;;;;;;5050929;28;20191;-64
2022/01/18 02:07:38;;;;;;;18.47;4.93;;;0.50;99.90;;;;;;5064343;28;20701;-65
2022/01/18 02:10:07;;;;;;;15.87;4.20;;;0.50;99.90;;;;;;5046778;28;20266;-65
2022/01/18 02:12:33;;;;;;;30.43;5.70;;;0.50;99.90;;;;;;5064420;28;20669;-65
2022/01/18 02:15:01;;;;;;;20.97;5.03;;;0.40;99.90;;;;;;5046431;28;20301;-64
2022/01/18 02:22:56;;;;;;;21.50;6.13;;;0.30;99.90;;;;;;5061021;28;20276;-63
2022/01/18 02:25:23;;;;;;;38.17;6.77;;;0.30;99.90;;;;;;5061871;28;20750;-63
2022/01/18 02:27:49;;;;;;;19.67;5.10;;;0.30;99.90;;;;;;5067875;28;20646;-63
2022/01/18 02:30:14;;;;;;;21.43;5.00;;;0.30;99.90;;;;;;5050546;28;20232;-64
2022/01/18 02:32:40;;;;;;;20.63;4.67;;;0.30;99.90;;;;;;5068721;28;20205;-64
2022/01/18 02:35:06;;;;;;;28.13;6.37;;;0.30;99.90;;;;;;5054452;28;20209;-64
2022/01/18 02:37:32;;;;;;;26.17;5.30;;;0.30;99.90;;;;;;5067611;28;20212;-65
2022/01/18 02:39:58;;;;;;;35.43;6.00;;;0.20;99.90;;;;;;5054727;28;20536;-64
2022/01/18 02:42:29;;;;;;;21.13;5.97;;;0.20;99.90;;;;;;5067598;28;20191;-65
2022/01/18 02:44:55;;;;;;;19.83;4.97;;;0.20;99.90;;;;;;5054421;28;20211;-63
2022/01/18 02:47:22;;;;;;;20.00;7.17;;;0.20;99.90;;;;;;5064399;28;20207;-64
2022/01/18 02:49:48;;;;;;;20.60;6.57;;;0.10;99.90;;;;;;5053999;28;20212;-65
2022/01/18 02:52:15;;;;;;;18.73;4.60;;;0.10;99.90;;;;;;5068034;28;20204;-64
2022/01/18 02:54:41;;;;;;;17.97;5.37;;;0.10;99.90;;;;;;5054359;28;20698;-64
2022/01/18 02:57:12;;;;;;;22.93;5.83;;;0.10;99.90;;;;;;5068132;28;20207;-64
2022/01/18 02:59:56;;;;;;;28.83;6.43;;;0.10;99.90;;;;;;5046529;28;20252;-64
2022/01/18 03:05:12;;;;;;;25.97;6.00;;;0.10;99.90;;;;;;5047928;28;20282;-64
2022/01/18 03:07:38;;;;;;;17.63;5.07;;;0.10;99.90;;;;;;5068147;28;20198;-63
2022/01/18 03:10:06;;;;;;;21.63;6.57;;;0.10;99.90;;;;;;5060523;28;20268;-63
2022/01/18 03:12:31;;;;;;;18.40;5.13;;;0.10;99.90;;;;;;5067143;28;20205;-64
2022/01/18 03:14:57;;;;;;;28.03;6.77;;;0.00;99.90;;;;;;5050064;28;20213;-64
2022/01/18 03:17:22;;;;;;;21.93;6.17;;;0.00;99.90;;;;;;5067892;28;20296;-63
2022/01/18 03:19:48;;;;;;;28.03;5.97;;;0.00;99.90;;;;;;5065147;28;20195;-64
2022/01/18 03:22:14;;;;;;;23.63;6.17;;;0.00;99.90;;;;;;5067473;28;20634;-64
2022/01/18 03:24:46;;;;;;;27.93;5.37;;;0.00;99.90;;;;;;5053721;28;20215;-65
2022/01/18 03:29:58;;;;;;;31.17;5.90;;;0.00;99.90;;;;;;5046962;28;20219;-65
2022/01/18 03:32:24;;;;;;;25.67;5.73;;;0.00;99.90;;;;;;5064801;28;20200;-65
2022/01/18 03:34:49;;;;;;;27.40;5.20;;;0.00;99.90;;;;;;5055549;28;20193;-64
2022/01/18 03:37:15;;;;;;;38.87;6.60;;;0.00;99.90;;;;;;5065407;28;20794;-64
2022/01/18 03:39:41;;;;;;;15.97;4.87;;;0.00;99.90;;;;;;5052537;28;20957;-65
2022/01/18 03:44:51;;;;;;;24.93;4.97;;;0.00;99.90;;;;;;5067472;28;20563;-65
2022/01/18 03:47:17;;;;;;;25.23;5.10;;;0.00;99.90;;;;;;5064902;28;20194;-65
2022/01/18 03:49:43;;;;;;;18.57;4.33;;;0.10;99.90;;;;;;5060192;28;20715;-64
2022/01/18 03:52:09;;;;;;;17.73;4.93;;;0.10;99.90;;;;;;5064812;28;20281;-65
2022/01/18 03:54:41;;;;;;;22.10;5.43;;;0.20;99.90;;;;;;5053187;28;20726;-65
2022/01/18 03:57:08;;;;;;;21.17;5.33;;;0.20;99.90;;;;;;5062177;28;20217;-64
2022/01/18 03:59:33;;;;;;;29.87;5.37;;;0.20;99.90;;;;;;5059333;28;20283;-64
2022/01/18 04:01:59;;;;;;;27.40;6.13;;;0.20;99.90;;;;;;5063962;28;20286;-64
2022/01/18 04:04:24;;;;;;;18.33;5.23;;;0.20;99.90;;;;;;5058828;28;20196;-63
2022/01/18 04:06:49;;;;;;;23.23;6.33;;;0.20;99.90;;;;;;5063325;28;20196;-63
2022/01/18 04:09:16;;;;;;;21.40;4.83;;;0.20;99.90;;;;;;5056221;28;20306;-63
2022/01/18 04:11:42;;;;;;;21.80;4.83;;;0.20;99.90;;;;;;5063424;28;20214;-64
2022/01/18 04:14:07;;;;;;;20.37;5.00;;;0.20;99.90;;;;;;5064598;28;20592;-63
2022/01/18 04:16:42;;;;;;;16.53;4.47;;;0.30;99.90;;;;;;5066138;28;20588;-64
2022/01/18 04:25:44;;;;;;;22.03;5.60;;;0.30;99.90;;;;;;5050316;28;20260;-64
2022/01/18 04:27:21;;;;;;;25.70;4.77;;;0.50;99.90;;;;;;5055020;28;20335;-64
2022/01/18 04:29:46;;;;;;;21.40;5.03;;;0.50;99.90;;;;;;5053378;28;20277;-64
2022/01/18 04:32:12;;;;;;;18.03;4.93;;;0.60;99.90;;;;;;5064359;28;20310;-64
2022/01/18 04:34:38;;;;;;;22.77;4.43;;;0.60;99.90;;;;;;5056534;28;20200;-63
2022/01/18 04:37:04;;;;;;;17.07;4.70;;;0.70;99.90;;;;;;5061726;28;20221;-64
2022/01/18 04:39:36;;;;;;;30.10;4.67;;;0.70;99.90;;;;;;5055225;28;20191;-64
2022/01/18 04:42:01;;;;;;;22.87;5.47;;;0.80;99.90;;;;;;5061995;28;20190;-63
2022/01/18 04:48:25;;;;;;;16.40;4.47;;;0.90;99.90;;;;;;5055458;28;20178;-63
2022/01/18 04:49:59;;;;;;;20.23;4.70;;;1.00;99.90;;;;;;5052698;28;20271;-65
2022/01/18 04:52:25;;;;;;;24.03;4.87;;;1.00;99.90;;;;;;5057944;28;20284;-65
2022/01/18 04:54:58;;;;;;;20.93;5.60;;;1.00;99.90;;;;;;5061630;28;20247;-64
2022/01/18 04:59:49;;;;;;;23.30;4.53;;;1.10;99.90;;;;;;5061778;28;20243;-64
2022/01/18 05:02:15;;;;;;;21.50;5.97;;;1.10;99.90;;;;;;5059428;28;20257;-64
2022/01/18 05:04:43;;;;;;;23.67;5.03;;;1.10;99.90;;;;;;5057689;28;20958;-64
2022/01/18 05:07:11;;;;;;;14.40;5.20;;;1.10;99.90;;;;;;5063012;28;20228;-64
2022/01/18 05:09:37;;;;;;;20.37;5.00;;;1.10;99.90;;;;;;5054087;28;20179;-64
2022/01/18 05:12:09;;;;;;;8.93;3.47;;;1.20;99.90;;;;;;5060263;28;20648;-63
2022/01/18 05:14:35;;;;;;;15.93;3.67;;;1.10;99.90;;;;;;5059082;28;20279;-63
2022/01/18 05:17:20;;;;;;;16.17;4.33;;;1.20;99.90;;;;;;5061242;28;20214;-63
2022/01/18 05:20:01;;;;;;;20.93;5.20;;;1.10;99.90;;;;;;5056246;28;20813;-64
2022/01/18 05:25:10;;;;;;;19.10;4.60;;;1.10;99.90;;;;;;5060042;28;20180;-64
2022/01/18 05:27:36;;;;;;;22.13;5.23;;;1.10;99.90;;;;;;5063185;28;20201;-64
2022/01/18 05:30:02;;;;;;;15.47;4.97;;;1.10;99.90;;;;;;5048583;28;20201;-64
2022/01/18 05:32:27;;;;;;;20.30;4.33;;;1.10;99.90;;;;;;5057530;28;20732;-63
2022/01/18 05:34:53;;;;;;;14.57;4.47;;;1.10;99.90;;;;;;5049218;28;20266;-63
2022/01/18 05:37:18;;;;;;;13.60;3.90;;;1.10;99.90;;;;;;5062620;28;20340;-63
2022/01/18 05:39:44;;;;;;;18.63;3.70;;;1.10;99.90;;;;;;5056187;28;20596;-63
2022/01/18 05:42:10;;;;;;;19.03;4.23;;;1.00;99.90;;;;;;5062852;28;20200;-63
2022/01/18 05:44:35;;;;;;;16.33;4.30;;;1.00;99.90;;;;;;5051410;28;20215;-64
2022/01/18 05:47:01;;;;;;;21.57;5.57;;;1.00;99.90;;;;;;5059654;28;20821;-64
2022/01/18 05:49:26;;;;;;;25.47;5.33;;;1.00;99.90;;;;;;5057463;28;20196;-64
2022/01/18 05:51:52;;;;;;;19.73;5.00;;;1.00;99.90;;;;;;5062793;28;20194;-64
2022/01/18 05:54:17;;;;;;;18.67;4.40;;;1.00;99.90;;;;;;5057657;28;20189;-63
2022/01/18 05:56:43;;;;;;;18.20;3.70;;;1.00;99.90;;;;;;5063704;28;20847;-65
2022/01/18 05:59:10;;;;;;;24.63;6.30;;;1.00;99.90;;;;;;5043134;28;20198;-68
2022/01/18 06:01:45;;;;;;;15.67;4.20;;;1.00;99.90;;;;;;5064019;28;20189;-66
2022/01/18 06:06:50;;;;;;;22.53;4.93;;;1.00;99.90;;;;;;5055353;28;20612;-64
2022/01/18 06:07:02;;;;;;;17.83;4.43;;;1.00;99.90;;;;;;5058370;28;20225;-70
2022/01/18 06:09:28;;;;;;;23.30;4.87;;;1.00;99.90;;;;;;5051872;28;20632;-64
2022/01/18 06:11:53;;;;;;;19.13;4.63;;;1.00;99.90;;;;;;5063846;28;20662;-64
2022/01/18 06:14:19;;;;;;;17.40;6.00;;;1.10;99.90;;;;;;5062358;28;20682;-63
2022/01/18 06:16:44;;;;;;;17.97;4.63;;;1.10;99.90;;;;;;5052988;28;20314;-64
2022/01/18 06:19:10;;;;;;;26.10;4.90;;;1.10;99.90;;;;;;5062282;28;20660;-63
2022/01/18 06:21:36;;;;;;;22.97;4.40;;;1.20;99.90;;;;;;5061630;28;20275;-63
2022/01/18 06:24:03;;;;;;;16.07;4.03;;;1.20;99.90;;;;;;5057704;28;20223;-64
2022/01/18 06:26:29;;;;;;;13.80;4.17;;;1.30;99.90;;;;;;5053063;28;20193;-63
2022/01/18 06:28:55;;;;;;;16.57;5.87;;;1.30;99.90;;;;;;5058699;28;20583;-65
2022/01/18 06:31:21;;;;;;;20.63;4.50;;;1.40;99.90;;;;;;5056282;28;20656;-64
2022/01/18 06:33:46;;;;;;;18.90;4.27;;;1.40;99.90;;;;;;5061931;28;20654;-64
2022/01/18 06:36:12;;;;;;;24.87;5.63;;;1.40;99.90;;;;;;5057571;28;20218;-65
2022/01/18 06:38:37;;;;;;;17.57;4.60;;;1.40;99.90;;;;;;5060183;28;20194;-63
2022/01/18 06:41:04;;;;;;;17.77;4.23;;;1.40;99.90;;;;;;5049665;28;20223;-63
2022/01/18 06:43:29;;;;;;;13.80;4.97;;;1.50;99.90;;;;;;5061797;28;20212;-63
2022/01/18 06:45:55;;;;;;;27.40;5.07;;;1.50;99.90;;;;;;5052613;28;20286;-64
2022/01/18 06:48:20;;;;;;;13.97;3.63;;;1.60;99.90;;;;;;5064107;28;20358;-64
2022/01/18 06:50:46;;;;;;;14.47;5.40;;;1.60;99.90;;;;;;5058976;28;20210;-65
2022/01/18 06:53:11;;;;;;;17.17;4.30;;;1.70;99.90;;;;;;5063715;28;20204;-64
2022/01/18 06:55:37;;;;;;;13.13;3.60;;;1.70;99.90;;;;;;5051788;28;20687;-64
2022/01/18 06:58:02;;;;;;;19.83;4.67;;;1.70;99.90;;;;;;5062457;28;20321;-64
2022/01/18 07:00:28;;;;;;;19.77;4.77;;;1.70;99.90;;;;;;5056748;28;20597;-64
2022/01/18 07:02:53;;;;;;;22.20;5.00;;;1.80;99.90;;;;;;5063214;28;20186;-64
2022/01/18 07:05:19;;;;;;;16.93;5.13;;;1.80;99.90;;;;;;5046641;28;20199;-65
2022/01/18 07:07:47;;;;;;;14.57;4.20;;;1.90;99.90;;;;;;5065098;28;20198;-65
2022/01/18 07:10:13;;;;;;;23.63;4.70;;;1.90;99.90;;;;;;5051337;28;20212;-64
2022/01/18 07:12:38;;;;;;;22.93;3.97;;;2.00;99.90;;;;;;5066815;28;20192;-64
2022/01/18 07:15:08;;;;;;;14.80;4.50;;;2.00;99.90;;;;;;5053823;28;20209;-64
2022/01/18 07:17:38;;;;;;;24.67;6.50;;;2.00;99.90;;;;;;5067320;28;20213;-64
2022/01/18 07:20:04;;;;;;;16.03;5.33;;;2.00;99.90;;;;;;5065137;28;20307;-63
2022/01/18 07:22:31;;;;;;;11.37;4.20;;;1.90;99.90;;;;;;5067577;28;20264;-63
2022/01/18 07:24:58;;;;;;;22.73;4.47;;;2.00;99.90;;;;;;5057810;28;20601;-64
2022/01/18 07:27:24;;;;;;;12.37;4.20;;;2.00;99.90;;;;;;5067630;28;20281;-63
2022/01/18 07:29:50;;;;;;;17.03;4.03;;;2.00;99.90;;;;;;5058268;28;20295;-64
2022/01/18 07:32:15;;;;;;;12.93;3.93;;;2.00;99.90;;;;;;5067115;28;20281;-63
2022/01/18 07:34:51;;;;;;;15.30;4.73;;;2.00;99.90;;;;;;5055163;28;20580;-64
2022/01/18 07:37:17;;;;;;;18.30;4.93;;;2.00;99.90;;;;;;5047291;28;20222;-64
2022/01/18 07:39:42;;;;;;;18.13;4.53;;;2.10;99.90;;;;;;5064301;28;20216;-65
2022/01/18 07:42:08;;;;;;;21.30;4.23;;;2.10;99.90;;;;;;5064904;28;20194;-64
2022/01/18 07:44:34;;;;;;;23.27;4.50;;;2.20;99.90;;;;;;5055153;28;20237;-62
2022/01/18 07:46:59;;;;;;;18.47;5.20;;;2.20;99.90;;;;;;5066080;28;20322;-63
2022/01/18 07:49:25;;;;;;;15.70;5.33;;;2.30;99.90;;;;;;5064874;28;20695;-63
2022/01/18 07:51:50;;;;;;;23.33;4.83;;;2.40;99.90;;;;;;5066462;28;20613;-63
2022/01/18 07:54:17;;;;;;;20.27;4.47;;;2.40;99.90;;;;;;5064520;28;20213;-63
2022/01/18 07:56:42;;;;;;;16.93;5.10;;;2.50;99.90;;;;;;5060334;28;20361;-63
2022/01/18 07:59:11;;;;;;;18.73;4.23;;;2.50;99.90;;;;;;5062898;28;20693;-63
2022/01/18 08:01:37;;;;;;;22.77;5.30;;;2.50;99.90;;;;;;5049476;28;20723;-63
2022/01/18 08:04:03;;;;;;;14.50;5.13;;;2.50;99.90;;;;;;5064652;28;20213;-63
2022/01/18 08:06:29;;;;;;;12.97;5.60;;;2.60;99.90;;;;;;5057702;28;20541;-63
2022/01/18 08:08:55;;;;;;;13.67;4.30;;;2.60;99.90;;;;;;5059035;28;20283;-64
2022/01/18 08:11:20;;;;;;;16.53;4.80;;;2.70;99.90;;;;;;5062860;28;20537;-62
2022/01/18 08:13:48;;;;;;;12.00;3.50;;;2.70;99.90;;;;;;5061358;28;20554;-64
2022/01/18 08:18:58;;;;;;;14.77;3.70;;;2.90;99.90;;;;;;5062494;28;20670;-64
2022/01/18 08:21:24;;;;;;;18.23;5.57;;;2.90;99.90;;;;;;5052441;28;20226;-65
2022/01/18 08:23:50;;;;;;;25.90;5.80;;;3.00;99.90;;;;;;5062473;28;20187;-63
2022/01/18 08:26:17;;;;;;;20.80;4.73;;;3.00;99.90;;;;;;5054601;28;20217;-63
2022/01/18 08:28:42;;;;;;;16.67;5.13;;;3.10;99.90;;;;;;5059301;28;20186;-64
2022/01/18 08:31:08;;;;;;;16.13;4.00;;;3.10;99.90;;;;;;5065193;28;20716;-63
2022/01/18 08:33:34;;;;;;;16.73;4.57;;;3.10;99.90;;;;;;5049509;28;20340;-64
2022/01/18 08:36:04;;;;;;;13.47;4.73;;;3.10;99.90;;;;;;5059967;28;20439;-63
2022/01/18 08:38:30;;;;;;;11.80;3.43;;;3.20;99.90;;;;;;5063961;28;20222;-64
2022/01/18 08:40:56;;;;;;;14.97;4.30;;;3.20;99.90;;;;;;5065486;28;20193;-64
2022/01/18 08:43:22;;;;;;;14.53;3.50;;;3.20;99.90;;;;;;5054057;28;20215;-64
2022/01/18 08:45:48;;;;;;;15.07;4.30;;;3.20;99.90;;;;;;5065555;28;20194;-65
2022/01/18 08:48:14;;;;;;;11.77;4.40;;;3.20;99.90;;;;;;5049917;28;20226;-64
2022/01/18 08:50:39;;;;;;;26.90;4.60;;;3.30;99.90;;;;;;5065944;28;20194;-65
2022/01/18 08:53:05;;;;;;;9.80;4.30;;;3.30;99.90;;;;;;5054052;28;20214;-68
2022/01/18 08:55:34;;;;;;;19.53;4.63;;;3.40;99.90;;;;;;5065578;28;20194;-64
2022/01/18 08:58:00;;;;;;;12.00;4.37;;;3.50;99.90;;;;;;5049351;28;20233;-65
2022/01/18 09:00:25;;;;;;;19.23;4.60;;;3.50;99.90;;;;;;5064751;28;20222;-65
2022/01/18 09:02:51;;;;;;;16.50;4.43;;;3.40;99.90;;;;;;5049980;28;20233;-65
2022/01/18 09:05:16;;;;;;;9.60;4.40;;;3.50;99.90;;;;;;5065179;28;20226;-68
2022/01/18 09:07:42;;;;;;;13.37;4.20;;;3.50;99.90;;;;;;5053639;28;20673;-63
2022/01/18 09:10:11;;;;;;;20.43;4.60;;;3.50;99.90;;;;;;5065621;28;20193;-63
2022/01/18 09:12:37;;;;;;;17.70;5.03;;;3.50;99.90;;;;;;5051952;28;20207;-62
2022/01/18 09:15:06;;;;;;;9.97;3.60;;;3.60;99.90;;;;;;5063557;28;20202;-63
2022/01/18 09:17:33;;;;;;;13.53;4.07;;;3.60;99.90;;;;;;5060488;28;20221;-68
2022/01/18 09:20:00;;;;;;;21.63;4.87;;;3.60;99.90;;;;;;5055382;28;20187;-64
2022/01/18 09:22:25;;;;;;;16.10;4.13;;;3.70;99.90;;;;;;5051145;28;20305;-63
2022/01/18 09:24:51;;;;;;;13.43;4.57;;;3.70;99.90;;;;;;5053731;28;20638;-63
2022/01/18 09:27:17;;;;;;;9.97;4.60;;;3.80;99.90;;;;;;5051973;28;20224;-63
2022/01/18 09:29:43;;;;;;;10.80;3.77;;;3.90;99.90;;;;;;5054978;28;20190;-64
2022/01/18 09:32:09;;;;;;;6.37;3.13;;;4.00;99.90;;;;;;5050560;28;20672;-63
2022/01/18 09:34:34;;;;;;;16.03;3.60;;;4.10;99.90;;;;;;5055461;28;20190;-64
2022/01/18 09:37:00;;;;;;;13.53;4.00;;;4.20;99.90;;;;;;5052473;28;20556;-64
2022/01/18 09:39:27;;;;;;;21.67;5.50;;;4.20;99.90;;;;;;5053613;28;20174;-64
2022/01/18 09:41:54;;;;;;;11.47;3.87;;;4.20;99.90;;;;;;5063068;28;20281;-64
2022/01/18 09:44:21;;;;;;;12.03;3.87;;;4.20;99.90;;;;;;5049065;28;20190;-64
2022/01/18 09:46:50;;;;;;;12.47;3.67;;;4.30;99.90;;;;;;5062244;28;20422;-62
2022/01/18 09:49:17;;;;;;;13.17;3.83;;;4.30;99.90;;;;;;5052653;28;20201;-63
2022/01/18 09:51:43;;;;;;;16.53;4.60;;;4.40;99.90;;;;;;5062938;28;20248;-63
2022/01/18 09:54:09;;;;;;;21.17;4.67;;;4.50;99.90;;;;;;5046641;28;20190;-63
2022/01/18 09:56:34;;;;;;;13.07;3.13;;;4.50;99.90;;;;;;5058750;28;20410;-63
2022/01/18 09:59:00;;;;;;;8.87;3.50;;;4.50;99.90;;;;;;5053824;28;20182;-64
2022/01/18 10:01:25;;;;;;;13.27;2.97;;;4.50;99.90;;;;;;5050204;28;20225;-64
2022/01/18 10:03:51;;;;;;;10.37;2.90;;;4.60;99.90;;;;;;5051341;28;20634;-64
2022/01/18 10:06:19;;;;;;;10.30;3.10;;;4.60;99.90;;;;;;5055108;28;20276;-63
2022/01/18 10:08:49;;;;;;;12.67;3.23;;;4.60;99.90;;;;;;5052102;28;20178;-65
2022/01/18 10:11:17;;;;;;;8.53;2.90;;;4.60;99.90;;;;;;5055270;28;20343;-64
2022/01/18 10:13:46;;;;;;;13.67;4.03;;;4.70;99.90;;;;;;5050458;28;20264;-65
2022/01/18 10:16:15;;;;;;;10.73;2.97;;;4.70;99.90;;;;;;5053228;28;20225;-64
2022/01/18 10:18:53;;;;;;;18.27;4.53;;;4.80;99.90;;;;;;5053533;28;20279;-66
2022/01/18 10:21:29;;;;;;;10.57;2.80;;;4.80;99.90;;;;;;5049494;28;20312;-72
2022/01/18 10:24:23;;;;;;;11.57;2.90;;;5.20;99.90;;;;;;5050707;28;20221;-72
2022/01/18 10:26:51;;;;;;;11.53;2.87;;;5.40;99.90;;;;;;5050724;28;20285;-72
2022/01/18 10:29:19;;;;;;;11.47;3.20;;;5.60;99.90;;;;;;5053609;28;20175;-68
2022/01/18 10:37:05;;;;;;;13.83;2.90;;;6.10;99.90;;;;;;5050763;28;20215;-70
2022/01/18 10:39:35;;;;;;;9.90;3.17;;;6.30;99.90;;;;;;5051457;28;20629;-70
2022/01/18 10:42:25;;;;;;;11.23;3.67;;;6.40;99.90;;;;;;5054661;28;20208;-67
2022/01/18 10:44:58;;;;;;;14.53;3.30;;;6.70;99.90;;;;;;5048872;28;20172;-68
2022/01/18 10:47:25;;;;;;;9.47;2.47;;;6.80;99.90;;;;;;5059049;28;20861;-68
2022/01/18 10:49:51;;;;;;;10.83;3.20;;;6.90;99.90;;;;;;5061985;28;20202;-68
2022/01/18 10:52:22;;;;;;;13.33;3.00;;;7.00;99.90;;;;;;5062258;28;20211;-72
2022/01/18 10:54:54;;;;;;;8.70;3.50;;;7.00;99.90;;;;;;5067671;28;20687;-72
2022/01/18 10:57:38;;;;;;;8.57;3.27;;;7.00;99.90;;;;;;5056638;28;20758;-69
2022/01/18 11:00:06;;;;;;;11.50;3.20;;;7.00;99.90;;;;;;5053528;28;20248;-68
2022/01/18 11:02:37;;;;;;;12.40;3.40;;;7.00;99.90;;;;;;5057529;28;20209;-67
2022/01/18 11:05:11;;;;;;;13.50;2.90;;;7.00;99.90;;;;;;5059583;28;20226;-68
2022/01/18 11:07:39;;;;;;;12.03;2.77;;;7.10;99.90;;;;;;5046316;28;20309;-68
2022/01/18 11:10:06;;;;;;;10.10;2.60;;;7.10;99.90;;;;;;5067393;28;20278;-68
2022/01/18 11:13:21;;;;;;;5.80;2.63;;;7.10;99.90;;;;;;5055102;28;20317;-68
2022/01/18 11:15:49;;;;;;;7.77;2.47;;;7.00;99.90;;;;;;5063059;28;20193;-68
2022/01/18 11:18:18;;;;;;;8.23;2.77;;;6.90;99.90;;;;;;5051560;28;20221;-68
2022/01/18 11:20:47;;;;;;;8.17;2.80;;;6.90;99.90;;;;;;5064421;28;20193;-68
2022/01/18 11:23:14;;;;;;;5.83;2.13;;;6.90;99.90;;;;;;5056599;28;20222;-68
2022/01/18 11:25:40;;;;;;;5.67;2.37;;;6.80;99.90;;;;;;5064103;28;20671;-66
2022/01/18 11:28:07;;;;;;;5.60;1.63;;;6.80;99.90;;;;;;5055409;28;20205;-68
2022/01/18 11:30:36;;;;;;;6.10;2.37;;;6.80;99.90;;;;;;5058882;28;20539;-69
2022/01/18 11:33:05;;;;;;;8.23;2.17;;;6.70;99.90;;;;;;5055996;28;20285;-69
2022/01/18 11:35:53;;;;;;;6.80;1.83;;;6.70;99.90;;;;;;5058347;28;20213;-69
2022/01/18 11:38:55;;;;;;;6.93;2.43;;;6.70;99.90;;;;;;5054673;28;20574;-69
2022/01/18 11:41:34;;;;;;;7.43;2.63;;;6.70;99.90;;;;;;5055556;28;20196;-68
2022/01/18 11:44:17;;;;;;;9.57;2.20;;;6.80;99.90;;;;;;5058027;28;20178;-68
2022/01/18 11:46:52;;;;;;;8.17;2.60;;;6.90;99.90;;;;;;5055810;28;20570;-67
2022/01/18 11:49:30;;;;;;;9.33;2.07;;;7.10;99.90;;;;;;5060961;28;20185;-67
2022/01/18 11:52:02;;;;;;;9.07;1.60;;;7.00;99.90;;;;;;5058716;28;20202;-69
2022/01/18 11:57:24;;;;;;;6.57;2.17;;;7.00;99.90;;;;;;5064001;28;20291;-69
2022/01/18 11:59:55;;;;;;;6.67;1.73;;;7.10;99.90;;;;;;5054209;28;20249;-72
2022/01/18 12:02:42;;;;;;;9.13;2.93;;;7.20;99.90;;;;;;5045125;28;20191;-69
2022/01/18 12:05:26;;;;;;;9.90;1.90;;;7.20;99.90;;;;;;5047397;28;20197;-70
2022/01/18 12:07:55;;;;;;;9.43;2.17;;;7.30;99.90;;;;;;5050583;28;20618;-70
2022/01/18 12:10:30;;;;;;;7.67;1.67;;;7.30;99.90;;;;;;5066594;28;20201;-71
2022/01/18 12:12:57;;;;;;;7.83;1.60;;;7.20;99.90;;;;;;5049258;28;20202;-73
2022/01/18 12:15:23;;;;;;;2.70;1.30;;;7.20;99.90;;;;;;5067171;28;20359;-71
2022/01/18 12:18:00;;;;;;;6.77;2.00;;;7.10;99.90;;;;;;5061078;28;20938;-71
2022/01/18 12:20:39;;;;;;;4.23;1.67;;;6.90;99.90;;;;;;5065338;28;20193;-73
2022/01/18 12:23:18;;;;;;;3.77;1.43;;;6.70;99.90;;;;;;5050689;28;20288;-68
2022/01/18 12:29:07;;;;;;;6.30;2.07;;;6.60;99.90;;;;;;5053528;28;20194;-68
2022/01/18 12:34:25;;;;;;;4.90;2.07;;;6.40;99.90;;;;;;5052883;28;20198;-69
2022/01/18 12:36:55;;;;;;;10.00;2.03;;;6.30;99.90;;;;;;5047981;28;20215;-72
2022/01/18 12:39:21;;;;;;;11.23;2.70;;;6.30;99.90;;;;;;5058040;28;20186;-69
2022/01/18 12:41:52;;;;;;;6.03;1.70;;;6.30;99.90;;;;;;5053887;28;20193;-70
2022/01/18 12:44:20;;;;;;;6.97;1.73;;;6.30;99.90;;;;;;5054203;28;20650;-68
2022/01/18 12:46:51;;;;;;;5.57;1.83;;;6.30;99.90;;;;;;5051218;28;20678;-68
2022/01/18 12:49:18;;;;;;;6.13;2.43;;;6.40;99.90;;;;;;5053338;28;20210;-70
2022/01/18 12:51:44;;;;;;;6.50;1.70;;;6.40;99.90;;;;;;5056200;28;20190;-69
2022/01/18 12:54:09;;;;;;;7.70;1.67;;;6.40;99.90;;;;;;5053007;28;20527;-68
2022/01/18 12:56:34;;;;;;;5.53;2.13;;;6.40;99.90;;;;;;5056272;28;20868;-68
2022/01/18 12:59:04;;;;;;;4.90;1.90;;;6.40;99.90;;;;;;5052363;28;20423;-68
2022/01/18 13:01:31;;;;;;;8.73;2.20;;;6.30;99.90;;;;;;5048918;28;20195;-68
2022/01/18 13:03:59;;;;;;;5.37;2.10;;;6.20;99.90;;;;;;5049908;28;20203;-72
2022/01/18 13:06:30;;;;;;;8.97;1.90;;;6.00;99.90;;;;;;5064540;28;20205;-67
2022/01/18 13:09:04;;;;;;;5.63;2.73;;;6.10;99.90;;;;;;5051622;28;20202;-69
2022/01/18 13:11:38;;;;;;;6.77;3.00;;;6.00;99.90;;;;;;5063426;28;20209;-68
2022/01/18 13:14:15;;;;;;;3.87;2.10;;;6.10;99.90;;;;;;5057276;28;20248;-68
2022/01/18 13:27:26;;;;;;;8.90;3.53;;;5.90;99.90;;;;;;5059039;28;20202;-68
2022/01/18 13:29:54;;;;;;;8.27;2.40;;;5.90;99.90;;;;;;5052657;28;20607;-67
2022/01/18 13:32:26;;;;;;;6.77;2.07;;;5.80;99.90;;;;;;5062249;28;20198;-68
2022/01/18 13:34:56;;;;;;;8.10;2.40;;;5.80;99.90;;;;;;5056667;28;20222;-67
2022/01/18 13:37:26;;;;;;;3.97;1.87;;;5.80;99.90;;;;;;5062699;28;20695;-67
2022/01/18 13:39:55;;;;;;;14.10;3.60;;;5.80;99.90;;;;;;5056606;28;20186;-67
2022/01/18 13:42:31;;;;;;;6.17;2.30;;;5.80;99.90;;;;;;5060652;28;20275;-67
2022/01/18 13:45:23;;;;;;;4.37;1.80;;;5.90;99.90;;;;;;5052441;28;20261;-67
2022/01/18 13:47:59;;;;;;;6.63;2.43;;;5.90;99.90;;;;;;5054269;28;20281;-68
2022/01/18 13:50:44;;;;;;;5.00;1.97;;;5.90;99.90;;;;;;5060677;28;20267;-68
2022/01/18 13:53:15;;;;;;;6.87;2.87;;;5.90;99.90;;;;;;5043702;28;20290;-68
2022/01/18 13:56:10;;;;;;;5.57;1.63;;;5.90;99.90;;;;;;5064711;28;20199;-68
2022/01/18 13:58:39;;;;;;;2.83;1.53;;;6.00;99.90;;;;;;5055273;28;20248;-67
2022/01/18 14:01:28;;;;;;;4.23;1.40;;;5.90;99.90;;;;;;5062835;28;20264;-67
2022/01/18 14:03:59;;;;;;;8.30;2.60;;;5.90;99.90;;;;;;5053020;28;20204;-67
2022/01/18 14:06:35;;;;;;;4.20;1.67;;;5.90;99.90;;;;;;5064213;28;20690;-67
2022/01/18 14:09:01;;;;;;;4.23;1.50;;;5.90;99.90;;;;;;5049289;28;20639;-66
2022/01/18 14:11:36;;;;;;;8.13;2.80;;;5.80;99.90;;;;;;5063388;28;20664;-66
2022/01/18 14:14:18;;;;;;;8.13;1.77;;;5.80;99.90;;;;;;5056768;28;20281;-68
2022/01/18 14:16:49;;;;;;;6.70;2.27;;;5.80;99.90;;;;;;5057427;28;20236;-67
2022/01/18 14:19:34;;;;;;;6.27;2.00;;;5.90;99.90;;;;;;5055017;28;20182;-67
2022/01/18 14:22:01;;;;;;;5.00;2.13;;;5.90;99.90;;;;;;5059729;28;20226;-67
2022/01/18 14:24:39;;;;;;;5.27;1.93;;;5.90;99.90;;;;;;5056794;28;20170;-67
2022/01/18 14:27:07;;;;;;;9.57;1.80;;;5.90;99.90;;;;;;5048056;28;20202;-67
2022/01/18 14:29:42;;;;;;;4.00;1.37;;;5.80;99.90;;;;;;5055264;28;20186;-67